sensor_id;sensor_type;location;lat;lon;timestamp;P1;durP1;ratioP1;P2;durP2;ratioP2
64110;SDS011;50401;48.188;11.566;2023-08-06T00:00:44;12.70;;;7.68;;
64110;SDS011;50401;48.188;11.566;2023-08-06T00:03:10;14.45;;;7.65;;
64110;SDS011;50401;48.188;11.566;2023-08-06T00:05:35;10.57;;;6.78;;
64110;SDS011;50401;48.188;11.566;2023-08-06T00:08:00;15.05;;;7.45;;
64110;SDS011;50401;48.188;11.566;2023-08-06T00:10:26;9.82;;;6.72;;
64110;SDS011;50401;48.188;11.566;2023-08-06T00:12:51;13.25;;;6.05;;
64110;SDS011;50401;48.188;11.566;2023-08-06T00:15:16;14.20;;;6.63;;
64110;SDS011;50401;48.188;11.566;2023-08-06T00:17:42;8.88;;;6.57;;
64110;SDS011;50401;48.188;11.566;2023-08-06T00:20:07;10.10;;;6.07;;
64110;SDS011;50401;48.188;11.566;2023-08-06T00:22:34;10.65;;;6.57;;
64110;SDS011;50401;48.188;11.566;2023-08-06T00:25:00;10.18;;;6.72;;
64110;SDS011;50401;48.188;11.566;2023-08-06T00:27:26;15.43;;;6.70;;
64110;SDS011;50401;48.188;11.566;2023-08-06T00:29:52;10.57;;;6.40;;
64110;SDS011;50401;48.188;11.566;2023-08-06T00:32:17;10.43;;;7.15;;
64110;SDS011;50401;48.188;11.566;2023-08-06T00:34:43;13.52;;;7.30;;
64110;SDS011;50401;48.188;11.566;2023-08-06T00:37:08;16.73;;;7.15;;
64110;SDS011;50401;48.188;11.566;2023-08-06T00:39:33;15.85;;;7.00;;
64110;SDS011;50401;48.188;11.566;2023-08-06T00:41:59;9.93;;;6.20;;
64110;SDS011;50401;48.188;11.566;2023-08-06T00:44:24;10.45;;;5.65;;
64110;SDS011;50401;48.188;11.566;2023-08-06T00:46:50;8.63;;;5.13;;
64110;SDS011;50401;48.188;11.566;2023-08-06T00:49:15;9.35;;;5.10;;
64110;SDS011;50401;48.188;11.566;2023-08-06T00:51:41;7.88;;;4.70;;
64110;SDS011;50401;48.188;11.566;2023-08-06T00:54:08;6.85;;;5.00;;
64110;SDS011;50401;48.188;11.566;2023-08-06T00:56:34;6.95;;;4.60;;
64110;SDS011;50401;48.188;11.566;2023-08-06T00:59:03;6.45;;;4.65;;
64110;SDS011;50401;48.188;11.566;2023-08-06T01:01:30;8.93;;;4.82;;
64110;SDS011;50401;48.188;11.566;2023-08-06T01:03:56;8.63;;;5.30;;
64110;SDS011;50401;48.188;11.566;2023-08-06T01:06:24;13.20;;;5.40;;
64110;SDS011;50401;48.188;11.566;2023-08-06T01:09:16;7.45;;;5.50;;
64110;SDS011;50401;48.188;11.566;2023-08-06T01:15:11;9.38;;;5.45;;
64110;SDS011;50401;48.188;11.566;2023-08-06T01:17:40;10.20;;;5.63;;
64110;SDS011;50401;48.188;11.566;2023-08-06T01:20:06;9.48;;;5.45;;
64110;SDS011;50401;48.188;11.566;2023-08-06T01:22:31;7.93;;;5.28;;
64110;SDS011;50401;48.188;11.566;2023-08-06T01:24:57;7.80;;;5.55;;
64110;SDS011;50401;48.188;11.566;2023-08-06T01:27:30;13.15;;;5.65;;
64110;SDS011;50401;48.188;11.566;2023-08-06T01:30:27;7.10;;;5.10;;
64110;SDS011;50401;48.188;11.566;2023-08-06T01:32:58;12.20;;;5.97;;
64110;SDS011;50401;48.188;11.566;2023-08-06T01:35:28;8.55;;;6.25;;
64110;SDS011;50401;48.188;11.566;2023-08-06T01:37:55;9.00;;;5.75;;
64110;SDS011;50401;48.188;11.566;2023-08-06T01:40:21;7.90;;;5.75;;
64110;SDS011;50401;48.188;11.566;2023-08-06T01:42:46;13.13;;;7.03;;
64110;SDS011;50401;48.188;11.566;2023-08-06T01:45:12;17.05;;;6.72;;
64110;SDS011;50401;48.188;11.566;2023-08-06T01:47:37;7.72;;;5.82;;
64110;SDS011;50401;48.188;11.566;2023-08-06T01:50:03;10.85;;;6.07;;
64110;SDS011;50401;48.188;11.566;2023-08-06T01:52:28;12.00;;;6.70;;
64110;SDS011;50401;48.188;11.566;2023-08-06T01:54:54;9.43;;;6.22;;
64110;SDS011;50401;48.188;11.566;2023-08-06T01:57:19;7.82;;;6.05;;
64110;SDS011;50401;48.188;11.566;2023-08-06T01:59:45;9.43;;;6.03;;
64110;SDS011;50401;48.188;11.566;2023-08-06T02:02:10;8.52;;;5.93;;
64110;SDS011;50401;48.188;11.566;2023-08-06T02:04:35;13.40;;;6.35;;
64110;SDS011;50401;48.188;11.566;2023-08-06T02:07:01;10.23;;;5.68;;
64110;SDS011;50401;48.188;11.566;2023-08-06T02:09:26;10.48;;;6.53;;
64110;SDS011;50401;48.188;11.566;2023-08-06T02:11:51;9.98;;;6.03;;
64110;SDS011;50401;48.188;11.566;2023-08-06T02:14:17;11.05;;;6.20;;
64110;SDS011;50401;48.188;11.566;2023-08-06T02:16:42;11.02;;;6.50;;
64110;SDS011;50401;48.188;11.566;2023-08-06T02:19:07;12.35;;;6.15;;
64110;SDS011;50401;48.188;11.566;2023-08-06T02:21:33;8.88;;;5.50;;
64110;SDS011;50401;48.188;11.566;2023-08-06T02:23:58;8.85;;;5.53;;
64110;SDS011;50401;48.188;11.566;2023-08-06T02:26:23;10.23;;;5.95;;
64110;SDS011;50401;48.188;11.566;2023-08-06T02:28:49;11.88;;;5.65;;
64110;SDS011;50401;48.188;11.566;2023-08-06T02:31:14;13.55;;;5.55;;
64110;SDS011;50401;48.188;11.566;2023-08-06T02:33:39;8.13;;;5.15;;
64110;SDS011;50401;48.188;11.566;2023-08-06T02:36:05;10.73;;;5.22;;
64110;SDS011;50401;48.188;11.566;2023-08-06T02:38:30;7.60;;;5.30;;
64110;SDS011;50401;48.188;11.566;2023-08-06T02:40:56;7.43;;;5.25;;
64110;SDS011;50401;48.188;11.566;2023-08-06T02:43:22;8.85;;;4.80;;
64110;SDS011;50401;48.188;11.566;2023-08-06T02:45:47;8.73;;;5.40;;
64110;SDS011;50401;48.188;11.566;2023-08-06T02:48:12;6.97;;;4.47;;
64110;SDS011;50401;48.188;11.566;2023-08-06T02:50:41;9.65;;;4.97;;
64110;SDS011;50401;48.188;11.566;2023-08-06T02:53:07;12.52;;;5.10;;
64110;SDS011;50401;48.188;11.566;2023-08-06T02:55:33;8.20;;;5.68;;
64110;SDS011;50401;48.188;11.566;2023-08-06T02:57:59;11.23;;;5.20;;
64110;SDS011;50401;48.188;11.566;2023-08-06T03:00:25;8.75;;;5.88;;
64110;SDS011;50401;48.188;11.566;2023-08-06T03:02:51;9.38;;;6.18;;
64110;SDS011;50401;48.188;11.566;2023-08-06T03:05:16;9.80;;;5.63;;
64110;SDS011;50401;48.188;11.566;2023-08-06T03:07:41;7.03;;;4.63;;
64110;SDS011;50401;48.188;11.566;2023-08-06T03:10:07;8.23;;;5.28;;
64110;SDS011;50401;48.188;11.566;2023-08-06T03:12:32;8.65;;;4.55;;
64110;SDS011;50401;48.188;11.566;2023-08-06T03:14:58;7.18;;;4.13;;
64110;SDS011;50401;48.188;11.566;2023-08-06T03:17:23;7.57;;;4.25;;
64110;SDS011;50401;48.188;11.566;2023-08-06T03:19:48;7.93;;;4.20;;
64110;SDS011;50401;48.188;11.566;2023-08-06T03:22:14;9.98;;;5.05;;
64110;SDS011;50401;48.188;11.566;2023-08-06T03:24:39;5.95;;;4.10;;
64110;SDS011;50401;48.188;11.566;2023-08-06T03:27:04;6.88;;;4.75;;
64110;SDS011;50401;48.188;11.566;2023-08-06T03:29:30;6.10;;;4.55;;
64110;SDS011;50401;48.188;11.566;2023-08-06T03:31:55;10.57;;;3.95;;
64110;SDS011;50401;48.188;11.566;2023-08-06T03:34:21;9.10;;;4.63;;
64110;SDS011;50401;48.188;11.566;2023-08-06T03:36:46;10.75;;;5.15;;
64110;SDS011;50401;48.188;11.566;2023-08-06T03:39:11;9.02;;;4.57;;
64110;SDS011;50401;48.188;11.566;2023-08-06T03:41:38;6.82;;;3.85;;
64110;SDS011;50401;48.188;11.566;2023-08-06T03:44:04;5.75;;;3.63;;
64110;SDS011;50401;48.188;11.566;2023-08-06T03:46:30;10.15;;;3.90;;
64110;SDS011;50401;48.188;11.566;2023-08-06T03:48:59;6.70;;;4.30;;
64110;SDS011;50401;48.188;11.566;2023-08-06T03:51:27;9.43;;;3.83;;
64110;SDS011;50401;48.188;11.566;2023-08-06T03:53:52;8.02;;;4.13;;
64110;SDS011;50401;48.188;11.566;2023-08-06T03:56:18;4.78;;;3.92;;
64110;SDS011;50401;48.188;11.566;2023-08-06T03:58:43;5.18;;;3.80;;
64110;SDS011;50401;48.188;11.566;2023-08-06T04:01:09;4.32;;;3.70;;
64110;SDS011;50401;48.188;11.566;2023-08-06T04:03:34;8.18;;;3.50;;
64110;SDS011;50401;48.188;11.566;2023-08-06T04:05:59;7.07;;;4.07;;
64110;SDS011;50401;48.188;11.566;2023-08-06T04:08:27;9.65;;;3.75;;
64110;SDS011;50401;48.188;11.566;2023-08-06T04:10:53;4.95;;;3.65;;
64110;SDS011;50401;48.188;11.566;2023-08-06T04:13:18;5.53;;;3.75;;
64110;SDS011;50401;48.188;11.566;2023-08-06T04:15:44;9.10;;;3.85;;
64110;SDS011;50401;48.188;11.566;2023-08-06T04:18:10;6.25;;;3.70;;
64110;SDS011;50401;48.188;11.566;2023-08-06T04:20:39;6.40;;;4.20;;
64110;SDS011;50401;48.188;11.566;2023-08-06T04:23:08;5.93;;;3.85;;
64110;SDS011;50401;48.188;11.566;2023-08-06T04:25:33;7.30;;;3.60;;
64110;SDS011;50401;48.188;11.566;2023-08-06T04:27:58;5.88;;;3.83;;
64110;SDS011;50401;48.188;11.566;2023-08-06T04:30:23;6.80;;;4.22;;
64110;SDS011;50401;48.188;11.566;2023-08-06T04:32:49;6.85;;;3.97;;
64110;SDS011;50401;48.188;11.566;2023-08-06T04:35:15;10.52;;;3.35;;
64110;SDS011;50401;48.188;11.566;2023-08-06T04:37:40;7.28;;;3.47;;
64110;SDS011;50401;48.188;11.566;2023-08-06T04:40:06;5.60;;;2.92;;
64110;SDS011;50401;48.188;11.566;2023-08-06T04:42:31;8.88;;;3.92;;
64110;SDS011;50401;48.188;11.566;2023-08-06T04:44:57;8.23;;;4.15;;
64110;SDS011;50401;48.188;11.566;2023-08-06T04:47:22;8.68;;;3.45;;
64110;SDS011;50401;48.188;11.566;2023-08-06T04:49:47;13.68;;;3.38;;
64110;SDS011;50401;48.188;11.566;2023-08-06T04:52:13;5.32;;;3.08;;
64110;SDS011;50401;48.188;11.566;2023-08-06T04:54:38;8.02;;;2.95;;
64110;SDS011;50401;48.188;11.566;2023-08-06T04:57:04;4.97;;;3.25;;
64110;SDS011;50401;48.188;11.566;2023-08-06T04:59:30;5.53;;;3.03;;
64110;SDS011;50401;48.188;11.566;2023-08-06T05:01:55;7.05;;;3.58;;
64110;SDS011;50401;48.188;11.566;2023-08-06T05:04:20;8.65;;;3.45;;
64110;SDS011;50401;48.188;11.566;2023-08-06T05:06:45;7.43;;;3.45;;
64110;SDS011;50401;48.188;11.566;2023-08-06T05:09:11;6.40;;;3.13;;
64110;SDS011;50401;48.188;11.566;2023-08-06T05:11:36;5.53;;;2.88;;
64110;SDS011;50401;48.188;11.566;2023-08-06T05:14:01;5.95;;;3.38;;
64110;SDS011;50401;48.188;11.566;2023-08-06T05:16:27;7.68;;;3.10;;
64110;SDS011;50401;48.188;11.566;2023-08-06T05:18:52;7.40;;;3.45;;
64110;SDS011;50401;48.188;11.566;2023-08-06T05:21:18;12.55;;;3.55;;
64110;SDS011;50401;48.188;11.566;2023-08-06T05:23:43;8.05;;;3.50;;
64110;SDS011;50401;48.188;11.566;2023-08-06T05:26:09;4.25;;;3.20;;
64110;SDS011;50401;48.188;11.566;2023-08-06T05:28:34;7.20;;;3.45;;
64110;SDS011;50401;48.188;11.566;2023-08-06T05:31:06;9.43;;;3.30;;
64110;SDS011;50401;48.188;11.566;2023-08-06T05:33:31;6.90;;;3.40;;
64110;SDS011;50401;48.188;11.566;2023-08-06T05:35:57;5.97;;;3.42;;
64110;SDS011;50401;48.188;11.566;2023-08-06T05:38:22;5.80;;;3.50;;
64110;SDS011;50401;48.188;11.566;2023-08-06T05:40:47;5.93;;;3.10;;
64110;SDS011;50401;48.188;11.566;2023-08-06T05:43:14;6.38;;;3.40;;
64110;SDS011;50401;48.188;11.566;2023-08-06T05:45:39;4.97;;;3.25;;
64110;SDS011;50401;48.188;11.566;2023-08-06T05:48:04;4.75;;;3.20;;
64110;SDS011;50401;48.188;11.566;2023-08-06T05:50:30;4.50;;;3.35;;
64110;SDS011;50401;48.188;11.566;2023-08-06T05:52:55;6.68;;;3.10;;
64110;SDS011;50401;48.188;11.566;2023-08-06T05:55:20;8.23;;;3.67;;
64110;SDS011;50401;48.188;11.566;2023-08-06T05:57:46;8.60;;;3.65;;
64110;SDS011;50401;48.188;11.566;2023-08-06T06:00:11;6.90;;;3.42;;
64110;SDS011;50401;48.188;11.566;2023-08-06T06:02:37;4.60;;;3.22;;
64110;SDS011;50401;48.188;11.566;2023-08-06T06:05:02;7.95;;;3.28;;
64110;SDS011;50401;48.188;11.566;2023-08-06T06:07:27;6.35;;;3.30;;
64110;SDS011;50401;48.188;11.566;2023-08-06T06:09:53;5.25;;;3.00;;
64110;SDS011;50401;48.188;11.566;2023-08-06T06:12:18;7.75;;;3.05;;
64110;SDS011;50401;48.188;11.566;2023-08-06T06:14:43;5.95;;;3.10;;
64110;SDS011;50401;48.188;11.566;2023-08-06T06:17:09;7.97;;;3.95;;
64110;SDS011;50401;48.188;11.566;2023-08-06T06:19:34;8.98;;;3.03;;
64110;SDS011;50401;48.188;11.566;2023-08-06T06:21:59;3.47;;;2.55;;
64110;SDS011;50401;48.188;11.566;2023-08-06T06:24:25;11.45;;;3.15;;
64110;SDS011;50401;48.188;11.566;2023-08-06T06:26:50;7.22;;;2.88;;
64110;SDS011;50401;48.188;11.566;2023-08-06T06:29:15;5.28;;;2.58;;
64110;SDS011;50401;48.188;11.566;2023-08-06T06:31:41;5.47;;;3.33;;
64110;SDS011;50401;48.188;11.566;2023-08-06T06:34:06;6.78;;;3.78;;
64110;SDS011;50401;48.188;11.566;2023-08-06T06:36:31;5.30;;;3.05;;
64110;SDS011;50401;48.188;11.566;2023-08-06T06:38:57;7.07;;;3.15;;
64110;SDS011;50401;48.188;11.566;2023-08-06T06:41:22;6.78;;;3.58;;
64110;SDS011;50401;48.188;11.566;2023-08-06T06:43:48;12.48;;;3.25;;
64110;SDS011;50401;48.188;11.566;2023-08-06T06:46:14;3.33;;;2.38;;
64110;SDS011;50401;48.188;11.566;2023-08-06T06:48:39;7.22;;;2.67;;
64110;SDS011;50401;48.188;11.566;2023-08-06T06:51:04;10.88;;;2.85;;
64110;SDS011;50401;48.188;11.566;2023-08-06T06:53:30;6.00;;;2.67;;
64110;SDS011;50401;48.188;11.566;2023-08-06T06:56:02;6.72;;;3.10;;
64110;SDS011;50401;48.188;11.566;2023-08-06T06:58:29;5.72;;;2.63;;
64110;SDS011;50401;48.188;11.566;2023-08-06T07:00:55;7.05;;;3.38;;
64110;SDS011;50401;48.188;11.566;2023-08-06T07:03:20;10.18;;;3.70;;
64110;SDS011;50401;48.188;11.566;2023-08-06T07:05:46;4.63;;;2.13;;
64110;SDS011;50401;48.188;11.566;2023-08-06T07:08:11;3.05;;;1.98;;
64110;SDS011;50401;48.188;11.566;2023-08-06T07:10:37;11.02;;;2.88;;
64110;SDS011;50401;48.188;11.566;2023-08-06T07:13:02;4.47;;;2.30;;
64110;SDS011;50401;48.188;11.566;2023-08-06T07:15:28;14.00;;;1.80;;
64110;SDS011;50401;48.188;11.566;2023-08-06T07:17:54;3.65;;;1.50;;
64110;SDS011;50401;48.188;11.566;2023-08-06T07:20:19;3.22;;;1.25;;
64110;SDS011;50401;48.188;11.566;2023-08-06T07:22:45;2.75;;;1.52;;
64110;SDS011;50401;48.188;11.566;2023-08-06T07:25:10;3.30;;;1.40;;
64110;SDS011;50401;48.188;11.566;2023-08-06T07:27:36;7.10;;;2.20;;
64110;SDS011;50401;48.188;11.566;2023-08-06T07:30:01;8.70;;;1.50;;
64110;SDS011;50401;48.188;11.566;2023-08-06T07:32:27;5.68;;;1.88;;
64110;SDS011;50401;48.188;11.566;2023-08-06T07:34:55;5.57;;;1.70;;
64110;SDS011;50401;48.188;11.566;2023-08-06T07:37:24;7.63;;;2.13;;
64110;SDS011;50401;48.188;11.566;2023-08-06T07:39:50;3.38;;;1.70;;
64110;SDS011;50401;48.188;11.566;2023-08-06T07:42:15;5.00;;;2.10;;
64110;SDS011;50401;48.188;11.566;2023-08-06T07:44:40;9.50;;;4.45;;
64110;SDS011;50401;48.188;11.566;2023-08-06T07:47:06;11.05;;;2.63;;
64110;SDS011;50401;48.188;11.566;2023-08-06T07:49:31;7.07;;;2.50;;
64110;SDS011;50401;48.188;11.566;2023-08-06T07:51:56;5.40;;;1.63;;
64110;SDS011;50401;48.188;11.566;2023-08-06T07:54:22;10.35;;;1.67;;
64110;SDS011;50401;48.188;11.566;2023-08-06T07:56:49;7.88;;;1.42;;
64110;SDS011;50401;48.188;11.566;2023-08-06T07:59:14;5.63;;;1.83;;
64110;SDS011;50401;48.188;11.566;2023-08-06T08:01:40;3.15;;;1.67;;
64110;SDS011;50401;48.188;11.566;2023-08-06T08:04:05;4.75;;;1.40;;
64110;SDS011;50401;48.188;11.566;2023-08-06T08:06:30;7.18;;;3.15;;
64110;SDS011;50401;48.188;11.566;2023-08-06T08:08:56;3.03;;;1.60;;
64110;SDS011;50401;48.188;11.566;2023-08-06T08:11:21;5.78;;;1.45;;
64110;SDS011;50401;48.188;11.566;2023-08-06T08:13:46;3.78;;;2.03;;
64110;SDS011;50401;48.188;11.566;2023-08-06T08:16:12;4.00;;;2.00;;
64110;SDS011;50401;48.188;11.566;2023-08-06T08:18:37;4.70;;;1.55;;
64110;SDS011;50401;48.188;11.566;2023-08-06T08:21:02;4.05;;;1.50;;
64110;SDS011;50401;48.188;11.566;2023-08-06T08:23:28;5.20;;;1.50;;
64110;SDS011;50401;48.188;11.566;2023-08-06T08:25:53;2.40;;;1.50;;
64110;SDS011;50401;48.188;11.566;2023-08-06T08:28:19;5.00;;;1.30;;
64110;SDS011;50401;48.188;11.566;2023-08-06T08:30:45;3.78;;;1.30;;
64110;SDS011;50401;48.188;11.566;2023-08-06T08:33:10;5.82;;;1.33;;
64110;SDS011;50401;48.188;11.566;2023-08-06T08:35:36;3.10;;;1.05;;
64110;SDS011;50401;48.188;11.566;2023-08-06T08:38:01;2.25;;;1.33;;
64110;SDS011;50401;48.188;11.566;2023-08-06T08:40:29;3.88;;;1.40;;
64110;SDS011;50401;48.188;11.566;2023-08-06T08:42:57;2.65;;;1.58;;
64110;SDS011;50401;48.188;11.566;2023-08-06T08:45:23;8.18;;;1.70;;
64110;SDS011;50401;48.188;11.566;2023-08-06T08:47:53;4.75;;;1.88;;
64110;SDS011;50401;48.188;11.566;2023-08-06T08:50:18;5.28;;;2.63;;
64110;SDS011;50401;48.188;11.566;2023-08-06T08:52:45;4.97;;;1.38;;
64110;SDS011;50401;48.188;11.566;2023-08-06T08:55:11;3.72;;;1.70;;
64110;SDS011;50401;48.188;11.566;2023-08-06T08:57:37;3.45;;;1.27;;
64110;SDS011;50401;48.188;11.566;2023-08-06T09:00:03;2.67;;;1.40;;
64110;SDS011;50401;48.188;11.566;2023-08-06T09:02:29;2.15;;;1.10;;
64110;SDS011;50401;48.188;11.566;2023-08-06T09:05:01;2.95;;;1.00;;
64110;SDS011;50401;48.188;11.566;2023-08-06T09:07:29;3.28;;;1.48;;
64110;SDS011;50401;48.188;11.566;2023-08-06T09:09:58;1.98;;;0.90;;
64110;SDS011;50401;48.188;11.566;2023-08-06T09:12:26;4.85;;;0.90;;
64110;SDS011;50401;48.188;11.566;2023-08-06T09:14:52;4.03;;;1.20;;
64110;SDS011;50401;48.188;11.566;2023-08-06T09:17:17;2.00;;;1.08;;
64110;SDS011;50401;48.188;11.566;2023-08-06T09:19:45;2.60;;;0.55;;
64110;SDS011;50401;48.188;11.566;2023-08-06T09:22:12;1.45;;;0.68;;
64110;SDS011;50401;48.188;11.566;2023-08-06T09:24:39;0.52;;;0.52;;
64110;SDS011;50401;48.188;11.566;2023-08-06T09:27:06;5.47;;;0.60;;
64110;SDS011;50401;48.188;11.566;2023-08-06T09:29:39;2.70;;;0.75;;
64110;SDS011;50401;48.188;11.566;2023-08-06T09:32:08;1.55;;;0.60;;
64110;SDS011;50401;48.188;11.566;2023-08-06T09:34:33;2.58;;;0.90;;
64110;SDS011;50401;48.188;11.566;2023-08-06T09:36:59;0.68;;;0.60;;
64110;SDS011;50401;48.188;11.566;2023-08-06T09:39:28;1.35;;;0.57;;
64110;SDS011;50401;48.188;11.566;2023-08-06T09:41:55;3.63;;;1.02;;
64110;SDS011;50401;48.188;11.566;2023-08-06T09:44:22;0.82;;;0.50;;
64110;SDS011;50401;48.188;11.566;2023-08-06T09:46:53;2.88;;;0.40;;
64110;SDS011;50401;48.188;11.566;2023-08-06T09:49:22;4.38;;;0.50;;
64110;SDS011;50401;48.188;11.566;2023-08-06T09:51:53;1.42;;;0.60;;
64110;SDS011;50401;48.188;11.566;2023-08-06T09:54:24;6.38;;;0.80;;
64110;SDS011;50401;48.188;11.566;2023-08-06T09:56:49;2.08;;;0.43;;
64110;SDS011;50401;48.188;11.566;2023-08-06T09:59:15;2.65;;;0.60;;
64110;SDS011;50401;48.188;11.566;2023-08-06T10:01:42;5.68;;;0.40;;
64110;SDS011;50401;48.188;11.566;2023-08-06T10:04:08;0.50;;;0.50;;
64110;SDS011;50401;48.188;11.566;2023-08-06T10:06:34;2.38;;;0.50;;
64110;SDS011;50401;48.188;11.566;2023-08-06T10:11:29;1.17;;;0.40;;
64110;SDS011;50401;48.188;11.566;2023-08-06T10:13:58;0.82;;;0.30;;
64110;SDS011;50401;48.188;11.566;2023-08-06T10:16:28;1.90;;;0.40;;
64110;SDS011;50401;48.188;11.566;2023-08-06T10:18:54;0.57;;;0.38;;
64110;SDS011;50401;48.188;11.566;2023-08-06T10:21:23;8.95;;;0.50;;
64110;SDS011;50401;48.188;11.566;2023-08-06T10:23:53;2.30;;;0.47;;
64110;SDS011;50401;48.188;11.566;2023-08-06T10:26:19;1.50;;;0.40;;
64110;SDS011;50401;48.188;11.566;2023-08-06T10:28:45;2.53;;;0.50;;
64110;SDS011;50401;48.188;11.566;2023-08-06T10:31:10;3.33;;;0.52;;
64110;SDS011;50401;48.188;11.566;2023-08-06T10:33:42;0.85;;;0.47;;
64110;SDS011;50401;48.188;11.566;2023-08-06T10:36:09;0.77;;;0.50;;
64110;SDS011;50401;48.188;11.566;2023-08-06T10:38:36;2.17;;;0.60;;
64110;SDS011;50401;48.188;11.566;2023-08-06T10:41:09;2.03;;;0.50;;
64110;SDS011;50401;48.188;11.566;2023-08-06T10:44:06;2.53;;;0.60;;
64110;SDS011;50401;48.188;11.566;2023-08-06T10:46:33;2.17;;;0.75;;
64110;SDS011;50401;48.188;11.566;2023-08-06T10:48:58;2.92;;;0.50;;
64110;SDS011;50401;48.188;11.566;2023-08-06T10:51:24;2.20;;;1.02;;
64110;SDS011;50401;48.188;11.566;2023-08-06T10:53:50;6.28;;;0.90;;
64110;SDS011;50401;48.188;11.566;2023-08-06T10:56:22;3.08;;;0.98;;
64110;SDS011;50401;48.188;11.566;2023-08-06T10:58:53;5.78;;;1.00;;
64110;SDS011;50401;48.188;11.566;2023-08-06T11:01:19;12.23;;;0.80;;
64110;SDS011;50401;48.188;11.566;2023-08-06T11:03:46;22.25;;;0.90;;
64110;SDS011;50401;48.188;11.566;2023-08-06T11:06:17;5.80;;;0.88;;
64110;SDS011;50401;48.188;11.566;2023-08-06T11:08:47;3.00;;;1.00;;
64110;SDS011;50401;48.188;11.566;2023-08-06T11:11:16;1.00;;;0.40;;
64110;SDS011;50401;48.188;11.566;2023-08-06T11:13:46;1.58;;;0.70;;
64110;SDS011;50401;48.188;11.566;2023-08-06T11:16:15;0.60;;;0.40;;
64110;SDS011;50401;48.188;11.566;2023-08-06T11:18:43;1.13;;;0.80;;
64110;SDS011;50401;48.188;11.566;2023-08-06T11:21:09;4.65;;;0.80;;
64110;SDS011;50401;48.188;11.566;2023-08-06T11:23:35;1.10;;;0.40;;
64110;SDS011;50401;48.188;11.566;2023-08-06T11:26:01;0.93;;;0.30;;
64110;SDS011;50401;48.188;11.566;2023-08-06T11:28:27;1.48;;;0.52;;
64110;SDS011;50401;48.188;11.566;2023-08-06T11:30:52;3.60;;;0.57;;
64110;SDS011;50401;48.188;11.566;2023-08-06T11:33:23;0.57;;;0.45;;
64110;SDS011;50401;48.188;11.566;2023-08-06T11:35:53;0.47;;;0.30;;
64110;SDS011;50401;48.188;11.566;2023-08-06T11:38:20;4.15;;;1.02;;
64110;SDS011;50401;48.188;11.566;2023-08-06T11:40:45;2.47;;;0.68;;
64110;SDS011;50401;48.188;11.566;2023-08-06T11:43:12;1.75;;;0.68;;
64110;SDS011;50401;48.188;11.566;2023-08-06T11:45:38;2.28;;;0.80;;
64110;SDS011;50401;48.188;11.566;2023-08-06T11:48:03;1.38;;;0.40;;
64110;SDS011;50401;48.188;11.566;2023-08-06T11:50:30;1.42;;;0.60;;
64110;SDS011;50401;48.188;11.566;2023-08-06T11:52:59;1.92;;;0.32;;
64110;SDS011;50401;48.188;11.566;2023-08-06T11:55:26;0.50;;;0.47;;
64110;SDS011;50401;48.188;11.566;2023-08-06T11:57:53;5.45;;;1.20;;
64110;SDS011;50401;48.188;11.566;2023-08-06T12:00:19;1.38;;;0.60;;
64110;SDS011;50401;48.188;11.566;2023-08-06T12:02:47;0.93;;;0.20;;
64110;SDS011;50401;48.188;11.566;2023-08-06T12:05:16;0.40;;;0.20;;
64110;SDS011;50401;48.188;11.566;2023-08-06T12:07:47;0.82;;;0.32;;
64110;SDS011;50401;48.188;11.566;2023-08-06T12:10:15;1.85;;;0.45;;
64110;SDS011;50401;48.188;11.566;2023-08-06T12:12:41;0.43;;;0.40;;
64110;SDS011;50401;48.188;11.566;2023-08-06T12:15:08;0.73;;;0.40;;
64110;SDS011;50401;48.188;11.566;2023-08-06T12:17:34;1.35;;;0.40;;
64110;SDS011;50401;48.188;11.566;2023-08-06T12:20:00;0.32;;;0.32;;
64110;SDS011;50401;48.188;11.566;2023-08-06T12:22:26;1.30;;;0.40;;
64110;SDS011;50401;48.188;11.566;2023-08-06T12:24:51;0.43;;;0.30;;
64110;SDS011;50401;48.188;11.566;2023-08-06T12:27:16;0.20;;;0.20;;
64110;SDS011;50401;48.188;11.566;2023-08-06T12:29:42;0.52;;;0.40;;
64110;SDS011;50401;48.188;11.566;2023-08-06T12:32:09;3.22;;;0.40;;
64110;SDS011;50401;48.188;11.566;2023-08-06T12:34:35;0.47;;;0.40;;
64110;SDS011;50401;48.188;11.566;2023-08-06T12:37:01;0.70;;;0.50;;
64110;SDS011;50401;48.188;11.566;2023-08-06T12:39:27;0.55;;;0.40;;
64110;SDS011;50401;48.188;11.566;2023-08-06T12:41:53;1.23;;;0.50;;
64110;SDS011;50401;48.188;11.566;2023-08-06T12:44:20;1.05;;;0.70;;
64110;SDS011;50401;48.188;11.566;2023-08-06T12:46:45;2.30;;;0.65;;
64110;SDS011;50401;48.188;11.566;2023-08-06T12:49:11;1.10;;;0.30;;
64110;SDS011;50401;48.188;11.566;2023-08-06T12:51:36;0.30;;;0.30;;
64110;SDS011;50401;48.188;11.566;2023-08-06T12:54:01;1.10;;;0.40;;
64110;SDS011;50401;48.188;11.566;2023-08-06T12:56:27;2.42;;;0.63;;
64110;SDS011;50401;48.188;11.566;2023-08-06T12:58:52;0.40;;;0.40;;
64110;SDS011;50401;48.188;11.566;2023-08-06T13:01:18;4.88;;;1.98;;
64110;SDS011;50401;48.188;11.566;2023-08-06T13:03:43;2.55;;;0.40;;
64110;SDS011;50401;48.188;11.566;2023-08-06T13:06:08;2.90;;;1.40;;
64110;SDS011;50401;48.188;11.566;2023-08-06T13:08:34;3.95;;;0.55;;
64110;SDS011;50401;48.188;11.566;2023-08-06T13:11:00;0.32;;;0.20;;
64110;SDS011;50401;48.188;11.566;2023-08-06T13:13:26;4.20;;;0.40;;
64110;SDS011;50401;48.188;11.566;2023-08-06T13:15:52;0.38;;;0.38;;
64110;SDS011;50401;48.188;11.566;2023-08-06T13:18:17;0.40;;;0.22;;
64110;SDS011;50401;48.188;11.566;2023-08-06T13:20:42;2.17;;;0.30;;
64110;SDS011;50401;48.188;11.566;2023-08-06T13:23:08;1.50;;;0.50;;
64110;SDS011;50401;48.188;11.566;2023-08-06T13:25:33;3.22;;;0.40;;
64110;SDS011;50401;48.188;11.566;2023-08-06T13:28:02;3.78;;;0.50;;
64110;SDS011;50401;48.188;11.566;2023-08-06T13:30:28;0.57;;;0.40;;
64110;SDS011;50401;48.188;11.566;2023-08-06T13:32:53;0.95;;;0.57;;
64110;SDS011;50401;48.188;11.566;2023-08-06T13:35:20;2.00;;;0.60;;
64110;SDS011;50401;48.188;11.566;2023-08-06T13:37:46;1.65;;;0.90;;
64110;SDS011;50401;48.188;11.566;2023-08-06T13:40:13;4.28;;;0.45;;
64110;SDS011;50401;48.188;11.566;2023-08-06T13:42:38;1.00;;;0.40;;
64110;SDS011;50401;48.188;11.566;2023-08-06T13:45:04;1.75;;;0.47;;
64110;SDS011;50401;48.188;11.566;2023-08-06T13:47:31;1.70;;;0.65;;
64110;SDS011;50401;48.188;11.566;2023-08-06T13:49:56;1.75;;;0.90;;
64110;SDS011;50401;48.188;11.566;2023-08-06T13:52:22;2.45;;;0.47;;
64110;SDS011;50401;48.188;11.566;2023-08-06T13:54:47;7.20;;;0.75;;
64110;SDS011;50401;48.188;11.566;2023-08-06T13:57:12;1.83;;;0.40;;
64110;SDS011;50401;48.188;11.566;2023-08-06T13:59:38;1.25;;;0.47;;
64110;SDS011;50401;48.188;11.566;2023-08-06T14:02:03;1.83;;;0.60;;
64110;SDS011;50401;48.188;11.566;2023-08-06T14:04:29;1.85;;;0.45;;
64110;SDS011;50401;48.188;11.566;2023-08-06T14:06:54;0.80;;;0.47;;
64110;SDS011;50401;48.188;11.566;2023-08-06T14:09:19;2.00;;;0.50;;
64110;SDS011;50401;48.188;11.566;2023-08-06T14:11:45;1.05;;;0.63;;
64110;SDS011;50401;48.188;11.566;2023-08-06T14:14:10;0.52;;;0.43;;
64110;SDS011;50401;48.188;11.566;2023-08-06T14:16:36;2.33;;;0.70;;
64110;SDS011;50401;48.188;11.566;2023-08-06T14:19:02;5.68;;;0.50;;
64110;SDS011;50401;48.188;11.566;2023-08-06T14:21:27;0.93;;;0.50;;
64110;SDS011;50401;48.188;11.566;2023-08-06T14:23:53;1.42;;;0.93;;
64110;SDS011;50401;48.188;11.566;2023-08-06T14:26:18;2.95;;;1.77;;
64110;SDS011;50401;48.188;11.566;2023-08-06T14:28:43;0.98;;;0.45;;
64110;SDS011;50401;48.188;11.566;2023-08-06T14:31:09;0.70;;;0.52;;
64110;SDS011;50401;48.188;11.566;2023-08-06T14:33:34;1.92;;;1.15;;